sensor_id;sensor_type;location;lat;lon;timestamp;P1;durP1;ratioP1;P2;durP2;ratioP2
50803;SDS011;37205;51.434;6.756;2022-08-03T00:01:23;4.57;;;2.42;;
50803;SDS011;37205;51.434;6.756;2022-08-03T00:03:48;4.75;;;2.58;;
50803;SDS011;37205;51.434;6.756;2022-08-03T00:06:14;5.30;;;2.40;;
50803;SDS011;37205;51.434;6.756;2022-08-03T00:08:39;3.70;;;2.60;;
50803;SDS011;37205;51.434;6.756;2022-08-03T00:11:05;4.50;;;2.45;;
50803;SDS011;37205;51.434;6.756;2022-08-03T00:13:31;4.28;;;2.55;;
50803;SDS011;37205;51.434;6.756;2022-08-03T00:15:57;5.20;;;2.97;;
50803;SDS011;37205;51.434;6.756;2022-08-03T00:18:23;5.82;;;2.67;;
50803;SDS011;37205;51.434;6.756;2022-08-03T00:20:48;4.55;;;2.80;;
50803;SDS011;37205;51.434;6.756;2022-08-03T00:23:14;5.18;;;2.75;;
50803;SDS011;37205;51.434;6.756;2022-08-03T00:25:40;6.00;;;3.22;;
50803;SDS011;37205;51.434;6.756;2022-08-03T00:28:06;5.07;;;2.78;;
50803;SDS011;37205;51.434;6.756;2022-08-03T00:30:32;4.50;;;2.60;;
50803;SDS011;37205;51.434;6.756;2022-08-03T00:32:58;4.55;;;2.75;;
50803;SDS011;37205;51.434;6.756;2022-08-03T00:35:25;4.82;;;2.78;;
50803;SDS011;37205;51.434;6.756;2022-08-03T00:37:50;6.82;;;3.15;;
50803;SDS011;37205;51.434;6.756;2022-08-03T00:40:16;5.95;;;3.13;;
50803;SDS011;37205;51.434;6.756;2022-08-03T00:45:16;5.22;;;2.92;;
50803;SDS011;37205;51.434;6.756;2022-08-03T00:47:43;6.68;;;3.50;;
50803;SDS011;37205;51.434;6.756;2022-08-03T00:50:09;5.45;;;3.30;;
50803;SDS011;37205;51.434;6.756;2022-08-03T00:52:34;8.35;;;3.53;;
50803;SDS011;37205;51.434;6.756;2022-08-03T00:55:00;6.35;;;3.05;;
50803;SDS011;37205;51.434;6.756;2022-08-03T00:57:28;6.00;;;3.10;;
50803;SDS011;37205;51.434;6.756;2022-08-03T00:59:56;6.90;;;3.65;;
50803;SDS011;37205;51.434;6.756;2022-08-03T01:02:21;5.45;;;2.97;;
50803;SDS011;37205;51.434;6.756;2022-08-03T01:04:47;5.20;;;3.30;;
50803;SDS011;37205;51.434;6.756;2022-08-03T01:10:03;6.80;;;3.33;;
50803;SDS011;37205;51.434;6.756;2022-08-03T01:12:38;6.57;;;3.47;;
50803;SDS011;37205;51.434;6.756;2022-08-03T01:18:19;7.30;;;3.58;;
50803;SDS011;37205;51.434;6.756;2022-08-03T01:20:52;6.65;;;3.22;;
50803;SDS011;37205;51.434;6.756;2022-08-03T01:31:43;5.97;;;3.38;;
50803;SDS011;37205;51.434;6.756;2022-08-03T01:34:13;6.30;;;3.20;;
50803;SDS011;37205;51.434;6.756;2022-08-03T01:36:42;5.35;;;3.63;;
50803;SDS011;37205;51.434;6.756;2022-08-03T01:39:12;6.40;;;3.85;;
50803;SDS011;37205;51.434;6.756;2022-08-03T01:41:46;7.28;;;4.00;;
50803;SDS011;37205;51.434;6.756;2022-08-03T01:44:14;6.07;;;3.83;;
50803;SDS011;37205;51.434;6.756;2022-08-03T01:46:40;4.43;;;3.38;;
50803;SDS011;37205;51.434;6.756;2022-08-03T01:49:09;5.35;;;3.67;;
50803;SDS011;37205;51.434;6.756;2022-08-03T01:51:36;6.35;;;3.60;;
50803;SDS011;37205;51.434;6.756;2022-08-03T01:54:03;6.32;;;3.85;;
50803;SDS011;37205;51.434;6.756;2022-08-03T01:56:29;6.32;;;3.67;;
50803;SDS011;37205;51.434;6.756;2022-08-03T01:58:56;6.05;;;3.92;;
50803;SDS011;37205;51.434;6.756;2022-08-03T02:01:24;6.25;;;3.30;;
50803;SDS011;37205;51.434;6.756;2022-08-03T02:03:52;7.78;;;4.05;;
50803;SDS011;37205;51.434;6.756;2022-08-03T02:06:21;5.38;;;3.88;;
50803;SDS011;37205;51.434;6.756;2022-08-03T02:08:48;5.90;;;3.53;;
50803;SDS011;37205;51.434;6.756;2022-08-03T02:11:16;6.30;;;3.20;;
50803;SDS011;37205;51.434;6.756;2022-08-03T02:13:42;6.53;;;3.63;;
50803;SDS011;37205;51.434;6.756;2022-08-03T02:16:08;5.97;;;3.33;;
50803;SDS011;37205;51.434;6.756;2022-08-03T02:18:35;7.97;;;3.83;;
50803;SDS011;37205;51.434;6.756;2022-08-03T02:21:04;6.57;;;3.50;;
50803;SDS011;37205;51.434;6.756;2022-08-03T02:23:31;5.57;;;3.33;;
50803;SDS011;37205;51.434;6.756;2022-08-03T02:25:57;4.60;;;3.30;;
50803;SDS011;37205;51.434;6.756;2022-08-03T02:28:28;9.52;;;3.92;;
50803;SDS011;37205;51.434;6.756;2022-08-03T02:30:58;7.28;;;3.47;;
50803;SDS011;37205;51.434;6.756;2022-08-03T02:33:30;5.55;;;3.15;;
50803;SDS011;37205;51.434;6.756;2022-08-03T02:36:01;5.90;;;3.88;;
50803;SDS011;37205;51.434;6.756;2022-08-03T02:38:33;5.07;;;3.50;;
50803;SDS011;37205;51.434;6.756;2022-08-03T02:41:04;5.95;;;3.47;;
50803;SDS011;37205;51.434;6.756;2022-08-03T02:43:33;6.43;;;4.13;;
50803;SDS011;37205;51.434;6.756;2022-08-03T02:46:01;4.80;;;3.47;;
50803;SDS011;37205;51.434;6.756;2022-08-03T02:48:27;7.78;;;3.42;;
50803;SDS011;37205;51.434;6.756;2022-08-03T02:50:56;5.22;;;3.58;;
50803;SDS011;37205;51.434;6.756;2022-08-03T02:53:23;6.45;;;3.22;;
50803;SDS011;37205;51.434;6.756;2022-08-03T02:55:50;5.45;;;3.60;;
50803;SDS011;37205;51.434;6.756;2022-08-03T02:58:18;5.38;;;3.80;;
50803;SDS011;37205;51.434;6.756;2022-08-03T03:00:48;6.20;;;3.80;;
50803;SDS011;37205;51.434;6.756;2022-08-03T03:03:15;7.20;;;3.97;;
50803;SDS011;37205;51.434;6.756;2022-08-03T03:05:42;5.25;;;3.80;;
50803;SDS011;37205;51.434;6.756;2022-08-03T03:08:10;5.18;;;3.60;;
50803;SDS011;37205;51.434;6.756;2022-08-03T03:10:38;7.18;;;3.90;;
50803;SDS011;37205;51.434;6.756;2022-08-03T03:13:04;5.60;;;3.47;;
50803;SDS011;37205;51.434;6.756;2022-08-03T03:15:31;6.15;;;3.78;;
50803;SDS011;37205;51.434;6.756;2022-08-03T03:18:00;5.85;;;3.80;;
50803;SDS011;37205;51.434;6.756;2022-08-03T03:20:26;5.78;;;3.83;;
50803;SDS011;37205;51.434;6.756;2022-08-03T03:22:53;7.38;;;4.30;;
50803;SDS011;37205;51.434;6.756;2022-08-03T03:25:20;5.85;;;3.83;;
50803;SDS011;37205;51.434;6.756;2022-08-03T03:27:46;5.82;;;3.97;;
50803;SDS011;37205;51.434;6.756;2022-08-03T03:30:12;6.30;;;4.28;;
50803;SDS011;37205;51.434;6.756;2022-08-03T03:32:38;7.03;;;3.83;;
50803;SDS011;37205;51.434;6.756;2022-08-03T03:35:05;7.22;;;4.38;;
50803;SDS011;37205;51.434;6.756;2022-08-03T03:37:31;6.65;;;4.10;;
50803;SDS011;37205;51.434;6.756;2022-08-03T03:39:57;7.55;;;4.35;;
50803;SDS011;37205;51.434;6.756;2022-08-03T03:42:24;7.22;;;4.78;;
50803;SDS011;37205;51.434;6.756;2022-08-03T03:44:49;5.25;;;4.13;;
50803;SDS011;37205;51.434;6.756;2022-08-03T03:47:15;7.47;;;4.30;;
50803;SDS011;37205;51.434;6.756;2022-08-03T03:49:41;5.82;;;4.22;;
50803;SDS011;37205;51.434;6.756;2022-08-03T03:52:07;6.40;;;4.40;;
50803;SDS011;37205;51.434;6.756;2022-08-03T03:54:42;5.70;;;4.25;;
50803;SDS011;37205;51.434;6.756;2022-08-03T03:57:09;7.07;;;4.50;;
50803;SDS011;37205;51.434;6.756;2022-08-03T03:59:38;7.20;;;4.70;;
50803;SDS011;37205;51.434;6.756;2022-08-03T04:02:07;6.50;;;4.30;;
50803;SDS011;37205;51.434;6.756;2022-08-03T04:04:34;10.10;;;4.57;;
50803;SDS011;37205;51.434;6.756;2022-08-03T04:07:19;8.13;;;4.85;;
50803;SDS011;37205;51.434;6.756;2022-08-03T04:10:09;6.97;;;4.57;;
50803;SDS011;37205;51.434;6.756;2022-08-03T04:13:04;7.28;;;4.70;;
50803;SDS011;37205;51.434;6.756;2022-08-03T04:15:34;7.22;;;5.18;;
50803;SDS011;37205;51.434;6.756;2022-08-03T04:18:05;8.85;;;4.85;;
50803;SDS011;37205;51.434;6.756;2022-08-03T04:20:33;7.65;;;4.70;;
50803;SDS011;37205;51.434;6.756;2022-08-03T04:23:01;8.50;;;4.68;;
50803;SDS011;37205;51.434;6.756;2022-08-03T04:25:29;6.10;;;4.35;;
50803;SDS011;37205;51.434;6.756;2022-08-03T04:27:58;7.90;;;4.80;;
50803;SDS011;37205;51.434;6.756;2022-08-03T04:30:26;8.52;;;4.60;;
50803;SDS011;37205;51.434;6.756;2022-08-03T04:32:55;9.25;;;4.97;;
50803;SDS011;37205;51.434;6.756;2022-08-03T04:35:25;6.78;;;4.63;;
50803;SDS011;37205;51.434;6.756;2022-08-03T04:38:02;8.00;;;4.57;;
50803;SDS011;37205;51.434;6.756;2022-08-03T04:43:01;6.82;;;4.93;;
50803;SDS011;37205;51.434;6.756;2022-08-03T04:45:29;8.13;;;5.20;;
50803;SDS011;37205;51.434;6.756;2022-08-03T04:47:55;7.47;;;4.90;;
50803;SDS011;37205;51.434;6.756;2022-08-03T04:50:22;8.30;;;5.30;;
50803;SDS011;37205;51.434;6.756;2022-08-03T04:52:48;8.15;;;4.97;;
50803;SDS011;37205;51.434;6.756;2022-08-03T04:55:27;5.50;;;4.40;;
50803;SDS011;37205;51.434;6.756;2022-08-03T04:57:53;7.97;;;4.55;;
50803;SDS011;37205;51.434;6.756;2022-08-03T05:00:19;5.90;;;4.60;;
50803;SDS011;37205;51.434;6.756;2022-08-03T05:02:44;7.15;;;4.60;;
50803;SDS011;37205;51.434;6.756;2022-08-03T05:05:10;9.10;;;5.00;;
50803;SDS011;37205;51.434;6.756;2022-08-03T05:07:35;7.63;;;4.90;;
50803;SDS011;37205;51.434;6.756;2022-08-03T05:10:05;8.07;;;4.93;;
50803;SDS011;37205;51.434;6.756;2022-08-03T05:12:32;7.25;;;4.72;;
50803;SDS011;37205;51.434;6.756;2022-08-03T05:14:58;6.18;;;4.60;;
50803;SDS011;37205;51.434;6.756;2022-08-03T05:17:23;8.13;;;5.13;;
50803;SDS011;37205;51.434;6.756;2022-08-03T05:19:49;6.25;;;4.25;;
50803;SDS011;37205;51.434;6.756;2022-08-03T05:22:14;7.35;;;5.35;;
50803;SDS011;37205;51.434;6.756;2022-08-03T05:24:40;8.98;;;5.22;;
50803;SDS011;37205;51.434;6.756;2022-08-03T05:27:05;8.43;;;4.97;;
50803;SDS011;37205;51.434;6.756;2022-08-03T05:29:31;7.80;;;5.28;;
50803;SDS011;37205;51.434;6.756;2022-08-03T05:31:56;5.93;;;4.95;;
50803;SDS011;37205;51.434;6.756;2022-08-03T05:34:22;9.40;;;4.55;;
50803;SDS011;37205;51.434;6.756;2022-08-03T05:36:48;9.32;;;5.80;;
50803;SDS011;37205;51.434;6.756;2022-08-03T05:39:13;10.60;;;5.45;;
50803;SDS011;37205;51.434;6.756;2022-08-03T05:41:39;9.77;;;5.28;;
50803;SDS011;37205;51.434;6.756;2022-08-03T05:44:04;8.02;;;5.57;;
50803;SDS011;37205;51.434;6.756;2022-08-03T05:46:30;10.70;;;5.57;;
50803;SDS011;37205;51.434;6.756;2022-08-03T05:48:55;7.13;;;5.22;;
50803;SDS011;37205;51.434;6.756;2022-08-03T05:51:21;8.73;;;5.90;;
50803;SDS011;37205;51.434;6.756;2022-08-03T05:53:47;7.60;;;5.13;;
50803;SDS011;37205;51.434;6.756;2022-08-03T05:56:12;8.95;;;5.43;;
50803;SDS011;37205;51.434;6.756;2022-08-03T05:58:38;10.15;;;5.32;;
50803;SDS011;37205;51.434;6.756;2022-08-03T06:01:03;7.38;;;4.85;;
50803;SDS011;37205;51.434;6.756;2022-08-03T06:03:29;7.30;;;5.57;;
50803;SDS011;37205;51.434;6.756;2022-08-03T06:05:54;9.05;;;5.47;;
50803;SDS011;37205;51.434;6.756;2022-08-03T06:08:20;9.13;;;5.20;;
50803;SDS011;37205;51.434;6.756;2022-08-03T06:10:46;9.38;;;5.57;;
50803;SDS011;37205;51.434;6.756;2022-08-03T06:13:12;9.07;;;5.45;;
50803;SDS011;37205;51.434;6.756;2022-08-03T06:15:37;9.40;;;6.22;;
50803;SDS011;37205;51.434;6.756;2022-08-03T06:18:04;9.90;;;5.47;;
50803;SDS011;37205;51.434;6.756;2022-08-03T06:20:29;9.40;;;5.57;;
50803;SDS011;37205;51.434;6.756;2022-08-03T06:22:55;9.13;;;5.50;;
50803;SDS011;37205;51.434;6.756;2022-08-03T06:25:21;7.95;;;5.97;;
50803;SDS011;37205;51.434;6.756;2022-08-03T06:27:46;8.02;;;5.47;;
50803;SDS011;37205;51.434;6.756;2022-08-03T06:30:12;7.72;;;5.93;;
50803;SDS011;37205;51.434;6.756;2022-08-03T06:32:38;10.18;;;5.28;;
50803;SDS011;37205;51.434;6.756;2022-08-03T06:35:05;9.98;;;5.40;;
50803;SDS011;37205;51.434;6.756;2022-08-03T06:37:40;9.40;;;5.35;;
50803;SDS011;37205;51.434;6.756;2022-08-03T06:40:10;10.60;;;6.13;;
50803;SDS011;37205;51.434;6.756;2022-08-03T06:42:37;11.00;;;6.55;;
50803;SDS011;37205;51.434;6.756;2022-08-03T06:45:02;13.55;;;5.70;;
50803;SDS011;37205;51.434;6.756;2022-08-03T06:47:30;13.63;;;6.63;;
50803;SDS011;37205;51.434;6.756;2022-08-03T06:49:55;13.48;;;6.43;;
50803;SDS011;37205;51.434;6.756;2022-08-03T06:52:21;11.10;;;6.38;;
50803;SDS011;37205;51.434;6.756;2022-08-03T06:54:46;15.15;;;7.00;;
50803;SDS011;37205;51.434;6.756;2022-08-03T06:57:12;15.20;;;7.03;;
50803;SDS011;37205;51.434;6.756;2022-08-03T06:59:38;11.35;;;7.10;;
50803;SDS011;37205;51.434;6.756;2022-08-03T07:02:03;12.82;;;7.38;;
50803;SDS011;37205;51.434;6.756;2022-08-03T07:04:29;12.07;;;6.15;;
50803;SDS011;37205;51.434;6.756;2022-08-03T07:06:54;11.88;;;7.13;;
50803;SDS011;37205;51.434;6.756;2022-08-03T07:09:20;13.75;;;8.02;;
50803;SDS011;37205;51.434;6.756;2022-08-03T07:11:46;12.35;;;6.90;;
50803;SDS011;37205;51.434;6.756;2022-08-03T07:14:12;12.65;;;6.20;;
50803;SDS011;37205;51.434;6.756;2022-08-03T07:16:37;8.30;;;5.93;;
50803;SDS011;37205;51.434;6.756;2022-08-03T07:19:03;11.50;;;6.28;;
50803;SDS011;37205;51.434;6.756;2022-08-03T07:21:28;12.30;;;7.05;;
50803;SDS011;37205;51.434;6.756;2022-08-03T07:23:54;11.20;;;6.60;;
50803;SDS011;37205;51.434;6.756;2022-08-03T07:26:19;14.97;;;6.57;;
50803;SDS011;37205;51.434;6.756;2022-08-03T07:28:45;10.30;;;5.70;;
50803;SDS011;37205;51.434;6.756;2022-08-03T07:31:11;11.82;;;6.15;;
50803;SDS011;37205;51.434;6.756;2022-08-03T07:33:36;13.15;;;6.72;;
50803;SDS011;37205;51.434;6.756;2022-08-03T07:36:02;11.00;;;6.78;;
50803;SDS011;37205;51.434;6.756;2022-08-03T07:38:28;12.20;;;5.75;;
50803;SDS011;37205;51.434;6.756;2022-08-03T07:40:53;10.45;;;6.47;;
50803;SDS011;37205;51.434;6.756;2022-08-03T07:43:19;11.85;;;6.47;;
50803;SDS011;37205;51.434;6.756;2022-08-03T07:45:45;10.15;;;5.25;;
50803;SDS011;37205;51.434;6.756;2022-08-03T07:48:10;12.40;;;5.53;;
50803;SDS011;37205;51.434;6.756;2022-08-03T07:50:36;9.15;;;5.70;;
50803;SDS011;37205;51.434;6.756;2022-08-03T07:53:01;12.45;;;5.65;;
50803;SDS011;37205;51.434;6.756;2022-08-03T07:55:27;9.82;;;5.68;;
50803;SDS011;37205;51.434;6.756;2022-08-03T07:58:07;10.73;;;5.97;;
50803;SDS011;37205;51.434;6.756;2022-08-03T08:00:36;11.55;;;5.38;;
50803;SDS011;37205;51.434;6.756;2022-08-03T08:03:02;12.48;;;5.25;;
50803;SDS011;37205;51.434;6.756;2022-08-03T08:05:29;11.57;;;5.68;;
50803;SDS011;37205;51.434;6.756;2022-08-03T08:07:55;10.52;;;5.38;;
50803;SDS011;37205;51.434;6.756;2022-08-03T08:10:21;14.05;;;6.13;;
50803;SDS011;37205;51.434;6.756;2022-08-03T08:12:47;7.97;;;4.07;;
50803;SDS011;37205;51.434;6.756;2022-08-03T08:15:13;7.63;;;3.28;;
50803;SDS011;37205;51.434;6.756;2022-08-03T08:17:42;8.32;;;3.80;;
50803;SDS011;37205;51.434;6.756;2022-08-03T08:20:10;12.77;;;5.00;;
50803;SDS011;37205;51.434;6.756;2022-08-03T08:22:39;10.57;;;5.22;;
50803;SDS011;37205;51.434;6.756;2022-08-03T08:25:05;10.40;;;4.55;;
50803;SDS011;37205;51.434;6.756;2022-08-03T08:27:30;10.38;;;4.63;;
50803;SDS011;37205;51.434;6.756;2022-08-03T08:29:56;7.75;;;3.85;;
50803;SDS011;37205;51.434;6.756;2022-08-03T08:32:22;7.97;;;3.60;;
50803;SDS011;37205;51.434;6.756;2022-08-03T08:34:48;7.47;;;3.92;;
50803;SDS011;37205;51.434;6.756;2022-08-03T08:37:13;5.72;;;3.20;;
50803;SDS011;37205;51.434;6.756;2022-08-03T08:39:39;8.43;;;3.40;;
50803;SDS011;37205;51.434;6.756;2022-08-03T08:42:04;7.82;;;3.05;;
50803;SDS011;37205;51.434;6.756;2022-08-03T08:44:30;8.85;;;3.30;;
50803;SDS011;37205;51.434;6.756;2022-08-03T08:46:55;5.35;;;3.13;;
50803;SDS011;37205;51.434;6.756;2022-08-03T08:49:23;7.50;;;3.10;;
50803;SDS011;37205;51.434;6.756;2022-08-03T08:51:51;7.85;;;3.05;;
50803;SDS011;37205;51.434;6.756;2022-08-03T08:54:19;10.20;;;3.13;;
50803;SDS011;37205;51.434;6.756;2022-08-03T08:56:47;8.45;;;3.30;;
50803;SDS011;37205;51.434;6.756;2022-08-03T08:59:14;12.23;;;3.08;;
50803;SDS011;37205;51.434;6.756;2022-08-03T09:01:41;7.57;;;3.00;;
50803;SDS011;37205;51.434;6.756;2022-08-03T09:04:06;7.43;;;2.95;;
50803;SDS011;37205;51.434;6.756;2022-08-03T09:06:33;8.82;;;3.30;;
50803;SDS011;37205;51.434;6.756;2022-08-03T09:08:59;11.82;;;3.90;;
50803;SDS011;37205;51.434;6.756;2022-08-03T09:11:24;9.05;;;3.53;;
50803;SDS011;37205;51.434;6.756;2022-08-03T09:13:50;9.32;;;3.88;;
50803;SDS011;37205;51.434;6.756;2022-08-03T09:16:17;8.40;;;3.20;;
50803;SDS011;37205;51.434;6.756;2022-08-03T09:18:48;7.15;;;2.90;;
50803;SDS011;37205;51.434;6.756;2022-08-03T09:21:16;7.90;;;3.15;;
50803;SDS011;37205;51.434;6.756;2022-08-03T09:23:48;9.18;;;3.08;;
50803;SDS011;37205;51.434;6.756;2022-08-03T09:26:25;11.25;;;3.28;;
50803;SDS011;37205;51.434;6.756;2022-08-03T09:28:59;6.13;;;2.60;;
50803;SDS011;37205;51.434;6.756;2022-08-03T09:31:33;8.82;;;3.40;;
50803;SDS011;37205;51.434;6.756;2022-08-03T09:34:07;7.25;;;3.10;;
50803;SDS011;37205;51.434;6.756;2022-08-03T09:39:05;9.60;;;3.25;;
50803;SDS011;37205;51.434;6.756;2022-08-03T09:41:34;10.15;;;2.97;;
50803;SDS011;37205;51.434;6.756;2022-08-03T09:44:01;11.80;;;3.10;;
50803;SDS011;37205;51.434;6.756;2022-08-03T09:46:26;4.95;;;3.03;;
50803;SDS011;37205;51.434;6.756;2022-08-03T09:49:07;11.13;;;3.55;;
50803;SDS011;37205;51.434;6.756;2022-08-03T09:51:36;6.35;;;2.53;;
50803;SDS011;37205;51.434;6.756;2022-08-03T09:54:02;7.68;;;2.15;;
50803;SDS011;37205;51.434;6.756;2022-08-03T09:59:03;6.53;;;2.10;;
50803;SDS011;37205;51.434;6.756;2022-08-03T10:01:32;6.07;;;2.25;;
50803;SDS011;37205;51.434;6.756;2022-08-03T10:03:59;4.15;;;1.60;;
50803;SDS011;37205;51.434;6.756;2022-08-03T10:06:24;5.88;;;2.00;;
50803;SDS011;37205;51.434;6.756;2022-08-03T10:09:04;5.45;;;1.98;;
50803;SDS011;37205;51.434;6.756;2022-08-03T10:11:31;4.30;;;1.75;;
50803;SDS011;37205;51.434;6.756;2022-08-03T10:13:59;11.48;;;2.00;;
50803;SDS011;37205;51.434;6.756;2022-08-03T10:16:32;4.55;;;1.80;;
50803;SDS011;37205;51.434;6.756;2022-08-03T10:19:04;9.82;;;2.00;;
50803;SDS011;37205;51.434;6.756;2022-08-03T10:21:33;7.05;;;2.10;;
50803;SDS011;37205;51.434;6.756;2022-08-03T10:24:01;10.30;;;3.28;;
50803;SDS011;37205;51.434;6.756;2022-08-03T10:26:32;4.57;;;1.80;;
50803;SDS011;37205;51.434;6.756;2022-08-03T10:29:04;7.13;;;1.48;;
50803;SDS011;37205;51.434;6.756;2022-08-03T10:31:43;5.00;;;1.50;;
50803;SDS011;37205;51.434;6.756;2022-08-03T10:34:16;4.07;;;1.63;;
50803;SDS011;37205;51.434;6.756;2022-08-03T10:36:45;6.13;;;2.22;;
50803;SDS011;37205;51.434;6.756;2022-08-03T10:39:12;9.40;;;1.90;;
50803;SDS011;37205;51.434;6.756;2022-08-03T10:41:42;6.63;;;1.75;;
50803;SDS011;37205;51.434;6.756;2022-08-03T10:46:42;4.68;;;1.90;;
50803;SDS011;37205;51.434;6.756;2022-08-03T10:49:17;5.38;;;1.80;;
50803;SDS011;37205;51.434;6.756;2022-08-03T10:51:44;5.57;;;1.73;;
50803;SDS011;37205;51.434;6.756;2022-08-03T10:54:36;4.38;;;1.75;;
50803;SDS011;37205;51.434;6.756;2022-08-03T11:00:14;4.30;;;1.60;;
50803;SDS011;37205;51.434;6.756;2022-08-03T11:05:25;5.30;;;1.67;;
50803;SDS011;37205;51.434;6.756;2022-08-03T11:10:50;5.03;;;1.50;;
50803;SDS011;37205;51.434;6.756;2022-08-03T11:13:19;6.22;;;1.83;;
50803;SDS011;37205;51.434;6.756;2022-08-03T11:15:48;8.43;;;2.60;;
50803;SDS011;37205;51.434;6.756;2022-08-03T11:18:15;7.22;;;2.15;;
50803;SDS011;37205;51.434;6.756;2022-08-03T11:20:48;3.42;;;1.40;;
50803;SDS011;37205;51.434;6.756;2022-08-03T11:23:19;5.82;;;1.70;;
50803;SDS011;37205;51.434;6.756;2022-08-03T11:26:14;5.05;;;2.10;;
50803;SDS011;37205;51.434;6.756;2022-08-03T11:28:42;7.05;;;2.22;;
50803;SDS011;37205;51.434;6.756;2022-08-03T11:36:28;5.97;;;2.08;;
50803;SDS011;37205;51.434;6.756;2022-08-03T11:39:12;8.20;;;2.00;;
50803;SDS011;37205;51.434;6.756;2022-08-03T11:41:39;10.32;;;5.80;;
50803;SDS011;37205;51.434;6.756;2022-08-03T11:44:05;8.23;;;2.60;;
50803;SDS011;37205;51.434;6.756;2022-08-03T11:46:36;9.95;;;2.20;;
50803;SDS011;37205;51.434;6.756;2022-08-03T11:49:05;8.50;;;1.92;;
50803;SDS011;37205;51.434;6.756;2022-08-03T11:51:33;5.15;;;1.95;;
50803;SDS011;37205;51.434;6.756;2022-08-03T11:54:01;5.03;;;1.40;;
50803;SDS011;37205;51.434;6.756;2022-08-03T11:56:28;7.07;;;1.90;;
50803;SDS011;37205;51.434;6.756;2022-08-03T11:59:11;5.78;;;1.70;;
50803;SDS011;37205;51.434;6.756;2022-08-03T12:01:37;5.95;;;1.92;;
50803;SDS011;37205;51.434;6.756;2022-08-03T12:04:04;5.50;;;1.67;;
50803;SDS011;37205;51.434;6.756;2022-08-03T12:06:30;4.07;;;1.70;;
50803;SDS011;37205;51.434;6.756;2022-08-03T12:09:16;5.18;;;1.63;;
50803;SDS011;37205;51.434;6.756;2022-08-03T12:11:42;5.35;;;1.95;;
50803;SDS011;37205;51.434;6.756;2022-08-03T12:14:15;4.40;;;1.60;;
50803;SDS011;37205;51.434;6.756;2022-08-03T12:16:45;5.60;;;1.40;;
50803;SDS011;37205;51.434;6.756;2022-08-03T12:19:11;5.00;;;1.83;;
50803;SDS011;37205;51.434;6.756;2022-08-03T12:21:47;4.35;;;1.65;;
50803;SDS011;37205;51.434;6.756;2022-08-03T12:24:15;5.55;;;1.83;;
50803;SDS011;37205;51.434;6.756;2022-08-03T12:26:49;5.72;;;1.73;;
50803;SDS011;37205;51.434;6.756;2022-08-03T12:29:15;5.50;;;1.50;;
50803;SDS011;37205;51.434;6.756;2022-08-03T12:31:45;5.25;;;1.80;;
50803;SDS011;37205;51.434;6.756;2022-08-03T12:34:11;9.75;;;2.65;;
50803;SDS011;37205;51.434;6.756;2022-08-03T12:36:37;5.47;;;3.08;;
50803;SDS011;37205;51.434;6.756;2022-08-03T12:41:51;7.03;;;1.90;;
50803;SDS011;37205;51.434;6.756;2022-08-03T12:44:27;7.43;;;2.03;;
50803;SDS011;37205;51.434;6.756;2022-08-03T12:46:56;5.15;;;1.70;;
50803;SDS011;37205;51.434;6.756;2022-08-03T12:49:22;7.68;;;2.08;;
50803;SDS011;37205;51.434;6.756;2022-08-03T12:54:17;8.27;;;1.55;;
50803;SDS011;37205;51.434;6.756;2022-08-03T12:59:30;3.78;;;1.30;;
50803;SDS011;37205;51.434;6.756;2022-08-03T13:01:56;7.72;;;1.80;;
50803;SDS011;37205;51.434;6.756;2022-08-03T13:04:29;5.32;;;1.95;;
50803;SDS011;37205;51.434;6.756;2022-08-03T13:07:03;8.68;;;1.70;;
50803;SDS011;37205;51.434;6.756;2022-08-03T13:09:39;3.23;;;1.50;;
50803;SDS011;37205;51.434;6.756;2022-08-03T13:12:07;3.78;;;1.65;;
50803;SDS011;37205;51.434;6.756;2022-08-03T13:14:56;4.43;;;1.88;;
50803;SDS011;37205;51.434;6.756;2022-08-03T13:17:23;5.53;;;1.55;;
50803;SDS011;37205;51.434;6.756;2022-08-03T13:19:49;3.60;;;1.58;;
50803;SDS011;37205;51.434;6.756;2022-08-03T13:22:19;5.00;;;1.55;;
50803;SDS011;37205;51.434;6.756;2022-08-03T13:24:47;4.60;;;1.45;;
50803;SDS011;37205;51.434;6.756;2022-08-03T13:27:14;3.33;;;1.27;;
50803;SDS011;37205;51.434;6.756;2022-08-03T13:29:40;5.65;;;1.48;;
50803;SDS011;37205;51.434;6.756;2022-08-03T13:32:07;4.45;;;1.55;;
50803;SDS011;37205;51.434;6.756;2022-08-03T13:34:33;9.13;;;1.92;;
50803;SDS011;37205;51.434;6.756;2022-08-03T13:36:59;4.85;;;1.38;;
50803;SDS011;37205;51.434;6.756;2022-08-03T13:39:25;6.43;;;1.50;;
50803;SDS011;37205;51.434;6.756;2022-08-03T13:41:51;4.13;;;1.35;;
50803;SDS011;37205;51.434;6.756;2022-08-03T13:44:17;6.95;;;1.70;;
50803;SDS011;37205;51.434;6.756;2022-08-03T13:46:43;6.28;;;1.80;;
50803;SDS011;37205;51.434;6.756;2022-08-03T13:49:09;9.02;;;2.10;;
50803;SDS011;37205;51.434;6.756;2022-08-03T13:51:35;8.07;;;1.85;;
50803;SDS011;37205;51.434;6.756;2022-08-03T13:54:00;5.78;;;1.55;;
50803;SDS011;37205;51.434;6.756;2022-08-03T13:56:26;7.22;;;1.33;;
50803;SDS011;37205;51.434;6.756;2022-08-03T13:58:53;5.13;;;2.55;;
50803;SDS011;37205;51.434;6.756;2022-08-03T14:01:19;4.15;;;2.05;;
50803;SDS011;37205;51.434;6.756;2022-08-03T14:03:45;5.55;;;1.20;;
50803;SDS011;37205;51.434;6.756;2022-08-03T14:06:14;3.92;;;1.30;;
50803;SDS011;37205;51.434;6.756;2022-08-03T14:08:39;4.10;;;1.25;;
50803;SDS011;37205;51.434;6.756;2022-08-03T14:11:05;3.50;;;0.93;;
50803;SDS011;37205;51.434;6.756;2022-08-03T14:13:31;5.78;;;1.50;;
50803;SDS011;37205;51.434;6.756;2022-08-03T14:15:57;4.82;;;1.23;;
50803;SDS011;37205;51.434;6.756;2022-08-03T14:18:23;4.55;;;1.17;;
50803;SDS011;37205;51.434;6.756;2022-08-03T14:20:48;7.20;;;1.27;;
50803;SDS011;37205;51.434;6.756;2022-08-03T14:23:14;3.25;;;1.00;;
50803;SDS011;37205;51.434;6.756;2022-08-03T14:25:40;9.15;;;2.22;;
50803;SDS011;37205;51.434;6.756;2022-08-03T14:28:07;9.05;;;6.40;;
50803;SDS011;37205;51.434;6.756;2022-08-03T14:30:32;3.13;;;1.17;;
50803;SDS011;37205;51.434;6.756;2022-08-03T14:32:58;3.40;;;1.25;;
50803;SDS011;37205;51.434;6.756;2022-08-03T14:35:24;4.55;;;1.25;;
50803;SDS011;37205;51.434;6.756;2022-08-03T14:37:50;6.18;;;1.20;;
50803;SDS011;37205;51.434;6.756;2022-08-03T14:40:16;5.60;;;1.10;;
50803;SDS011;37205;51.434;6.756;2022-08-03T14:42:44;4.55;;;0.93;;
50803;SDS011;37205;51.434;6.756;2022-08-03T14:45:10;2.88;;;1.00;;
50803;SDS011;37205;51.434;6.756;2022-08-03T14:47:37;4.93;;;1.20;;
50803;SDS011;37205;51.434;6.756;2022-08-03T14:50:03;3.53;;;1.10;;
50803;SDS011;37205;51.434;6.756;2022-08-03T14:52:30;8.98;;;1.25;;
50803;SDS011;37205;51.434;6.756;2022-08-03T14:54:56;3.92;;;1.55;;
50803;SDS011;37205;51.434;6.756;2022-08-03T14:57:22;9.10;;;1.95;;
50803;SDS011;37205;51.434;6.756;2022-08-03T14:59:48;5.68;;;3.30;;
50803;SDS011;37205;51.434;6.756;2022-08-03T15:02:13;3.08;;;0.80;;
50803;SDS011;37205;51.434;6.756;2022-08-03T15:04:39;9.88;;;8.90;;
50803;SDS011;37205;51.434;6.756;2022-08-03T15:07:05;3.97;;;1.20;;
50803;SDS011;37205;51.434;6.756;2022-08-03T15:09:30;3.50;;;1.00;;
50803;SDS011;37205;51.434;6.756;2022-08-03T15:11:56;4.72;;;2.35;;
50803;SDS011;37205;51.434;6.756;2022-08-03T15:14:22;4.10;;;1.40;;
50803;SDS011;37205;51.434;6.756;2022-08-03T15:16:47;6.13;;;2.45;;
50803;SDS011;37205;51.434;6.756;2022-08-03T15:19:13;2.72;;;0.77;;
50803;SDS011;37205;51.434;6.756;2022-08-03T15:21:39;2.75;;;0.90;;
50803;SDS011;37205;51.434;6.756;2022-08-03T15:24:04;5.68;;;2.22;;
50803;SDS011;37205;51.434;6.756;2022-08-03T15:26:30;2.50;;;0.80;;
50803;SDS011;37205;51.434;6.756;2022-08-03T15:28:56;5.32;;;1.25;;
50803;SDS011;37205;51.434;6.756;2022-08-03T15:31:22;4.43;;;1.90;;
50803;SDS011;37205;51.434;6.756;2022-08-03T15:33:48;8.98;;;1.38;;
50803;SDS011;37205;51.434;6.756;2022-08-03T15:36:15;4.53;;;1.13;;
50803;SDS011;37205;51.434;6.756;2022-08-03T15:38:42;4.93;;;1.10;;